sensor_id;sensor_type;location;lat;lon;timestamp;P1;durP1;ratioP1;P2;durP2;ratioP2
47659;SDS011;33403;43.608;1.458;2023-04-24T00:01:55;6.57;;;3.08;;
47659;SDS011;33403;43.608;1.458;2023-04-24T00:04:21;6.50;;;3.20;;
47659;SDS011;33403;43.608;1.458;2023-04-24T00:06:47;6.72;;;3.30;;
47659;SDS011;33403;43.608;1.458;2023-04-24T00:09:18;9.77;;;3.90;;
47659;SDS011;33403;43.608;1.458;2023-04-24T00:11:44;7.93;;;3.60;;
47659;SDS011;33403;43.608;1.458;2023-04-24T00:14:10;7.05;;;3.75;;
47659;SDS011;33403;43.608;1.458;2023-04-24T00:16:36;7.78;;;3.65;;
47659;SDS011;33403;43.608;1.458;2023-04-24T00:19:01;9.90;;;3.90;;
47659;SDS011;33403;43.608;1.458;2023-04-24T00:21:27;7.15;;;3.65;;
47659;SDS011;33403;43.608;1.458;2023-04-24T00:23:52;7.53;;;3.88;;
47659;SDS011;33403;43.608;1.458;2023-04-24T00:26:18;6.43;;;3.40;;
47659;SDS011;33403;43.608;1.458;2023-04-24T00:28:44;7.00;;;3.58;;
47659;SDS011;33403;43.608;1.458;2023-04-24T00:31:09;6.70;;;3.90;;
47659;SDS011;33403;43.608;1.458;2023-04-24T00:33:35;6.95;;;3.63;;
47659;SDS011;33403;43.608;1.458;2023-04-24T00:36:01;7.70;;;4.10;;
47659;SDS011;33403;43.608;1.458;2023-04-24T00:38:27;12.65;;;4.30;;
47659;SDS011;33403;43.608;1.458;2023-04-24T00:40:52;9.15;;;4.32;;
47659;SDS011;33403;43.608;1.458;2023-04-24T00:43:19;9.02;;;4.00;;
47659;SDS011;33403;43.608;1.458;2023-04-24T00:45:44;6.63;;;3.75;;
47659;SDS011;33403;43.608;1.458;2023-04-24T00:48:11;8.48;;;4.00;;
47659;SDS011;33403;43.608;1.458;2023-04-24T00:50:37;8.43;;;5.07;;
47659;SDS011;33403;43.608;1.458;2023-04-24T00:53:03;9.85;;;6.20;;
47659;SDS011;33403;43.608;1.458;2023-04-24T00:55:29;13.30;;;6.22;;
47659;SDS011;33403;43.608;1.458;2023-04-24T00:57:55;11.65;;;6.85;;
47659;SDS011;33403;43.608;1.458;2023-04-24T01:00:21;14.25;;;7.03;;
47659;SDS011;33403;43.608;1.458;2023-04-24T01:02:48;13.23;;;7.55;;
47659;SDS011;33403;43.608;1.458;2023-04-24T01:05:14;21.88;;;7.97;;
47659;SDS011;33403;43.608;1.458;2023-04-24T01:07:43;12.98;;;8.07;;
47659;SDS011;33403;43.608;1.458;2023-04-24T01:10:12;13.32;;;7.30;;
47659;SDS011;33403;43.608;1.458;2023-04-24T01:12:39;11.93;;;6.22;;
47659;SDS011;33403;43.608;1.458;2023-04-24T01:15:05;10.68;;;6.43;;
47659;SDS011;33403;43.608;1.458;2023-04-24T01:17:34;9.55;;;4.90;;
47659;SDS011;33403;43.608;1.458;2023-04-24T01:20:00;7.63;;;4.97;;
47659;SDS011;33403;43.608;1.458;2023-04-24T01:22:26;11.18;;;4.53;;
47659;SDS011;33403;43.608;1.458;2023-04-24T01:24:52;8.38;;;4.20;;
47659;SDS011;33403;43.608;1.458;2023-04-24T01:27:18;7.32;;;3.72;;
47659;SDS011;33403;43.608;1.458;2023-04-24T01:29:44;8.18;;;3.83;;
47659;SDS011;33403;43.608;1.458;2023-04-24T01:32:10;6.93;;;3.70;;
47659;SDS011;33403;43.608;1.458;2023-04-24T01:34:36;8.00;;;3.55;;
47659;SDS011;33403;43.608;1.458;2023-04-24T01:37:03;7.55;;;3.70;;
47659;SDS011;33403;43.608;1.458;2023-04-24T01:39:30;10.18;;;3.95;;
47659;SDS011;33403;43.608;1.458;2023-04-24T01:41:55;7.75;;;3.60;;
47659;SDS011;33403;43.608;1.458;2023-04-24T01:44:21;5.53;;;2.80;;
47659;SDS011;33403;43.608;1.458;2023-04-24T01:46:47;6.72;;;3.20;;
47659;SDS011;33403;43.608;1.458;2023-04-24T01:49:13;6.60;;;3.08;;
47659;SDS011;33403;43.608;1.458;2023-04-24T01:51:39;6.65;;;2.90;;
47659;SDS011;33403;43.608;1.458;2023-04-24T01:54:05;6.47;;;2.85;;
47659;SDS011;33403;43.608;1.458;2023-04-24T01:56:31;5.80;;;2.60;;
47659;SDS011;33403;43.608;1.458;2023-04-24T01:58:58;5.07;;;2.80;;
47659;SDS011;33403;43.608;1.458;2023-04-24T02:01:25;3.88;;;2.30;;
47659;SDS011;33403;43.608;1.458;2023-04-24T02:03:51;7.22;;;2.95;;
47659;SDS011;33403;43.608;1.458;2023-04-24T02:06:17;8.55;;;3.08;;
47659;SDS011;33403;43.608;1.458;2023-04-24T02:08:42;6.43;;;2.90;;
47659;SDS011;33403;43.608;1.458;2023-04-24T02:11:08;6.35;;;2.67;;
47659;SDS011;33403;43.608;1.458;2023-04-24T02:13:34;6.18;;;3.35;;
47659;SDS011;33403;43.608;1.458;2023-04-24T02:16:00;8.43;;;3.17;;
47659;SDS011;33403;43.608;1.458;2023-04-24T02:18:26;8.55;;;2.83;;
47659;SDS011;33403;43.608;1.458;2023-04-24T02:20:52;5.75;;;3.10;;
47659;SDS011;33403;43.608;1.458;2023-04-24T02:23:18;6.30;;;3.08;;
47659;SDS011;33403;43.608;1.458;2023-04-24T02:25:43;7.78;;;2.88;;
47659;SDS011;33403;43.608;1.458;2023-04-24T02:28:09;8.48;;;3.45;;
47659;SDS011;33403;43.608;1.458;2023-04-24T02:30:34;6.03;;;2.80;;
47659;SDS011;33403;43.608;1.458;2023-04-24T02:33:00;6.70;;;2.60;;
47659;SDS011;33403;43.608;1.458;2023-04-24T02:35:26;4.75;;;2.53;;
47659;SDS011;33403;43.608;1.458;2023-04-24T02:37:51;4.80;;;2.60;;
47659;SDS011;33403;43.608;1.458;2023-04-24T02:40:17;6.72;;;2.90;;
47659;SDS011;33403;43.608;1.458;2023-04-24T02:42:43;6.90;;;2.97;;
47659;SDS011;33403;43.608;1.458;2023-04-24T02:45:08;3.65;;;2.58;;
47659;SDS011;33403;43.608;1.458;2023-04-24T02:47:34;6.30;;;2.70;;
47659;SDS011;33403;43.608;1.458;2023-04-24T02:50:01;5.10;;;2.40;;
47659;SDS011;33403;43.608;1.458;2023-04-24T02:52:28;7.35;;;2.95;;
47659;SDS011;33403;43.608;1.458;2023-04-24T02:54:53;4.68;;;2.55;;
47659;SDS011;33403;43.608;1.458;2023-04-24T02:57:19;4.53;;;2.63;;
47659;SDS011;33403;43.608;1.458;2023-04-24T02:59:45;5.68;;;2.67;;
47659;SDS011;33403;43.608;1.458;2023-04-24T03:02:10;9.93;;;2.72;;
47659;SDS011;33403;43.608;1.458;2023-04-24T03:04:36;5.57;;;2.78;;
47659;SDS011;33403;43.608;1.458;2023-04-24T03:07:02;4.15;;;2.40;;
47659;SDS011;33403;43.608;1.458;2023-04-24T03:09:27;5.13;;;2.80;;
47659;SDS011;33403;43.608;1.458;2023-04-24T03:11:53;4.15;;;2.38;;
47659;SDS011;33403;43.608;1.458;2023-04-24T03:14:18;7.90;;;2.70;;
47659;SDS011;33403;43.608;1.458;2023-04-24T03:16:44;7.18;;;2.70;;
47659;SDS011;33403;43.608;1.458;2023-04-24T03:19:10;6.00;;;2.50;;
47659;SDS011;33403;43.608;1.458;2023-04-24T03:21:35;6.20;;;2.58;;
47659;SDS011;33403;43.608;1.458;2023-04-24T03:24:05;6.60;;;2.40;;
47659;SDS011;33403;43.608;1.458;2023-04-24T03:26:34;4.80;;;2.33;;
47659;SDS011;33403;43.608;1.458;2023-04-24T03:29:00;5.45;;;2.45;;
47659;SDS011;33403;43.608;1.458;2023-04-24T03:31:26;4.03;;;2.17;;
47659;SDS011;33403;43.608;1.458;2023-04-24T03:33:51;6.68;;;3.28;;
47659;SDS011;33403;43.608;1.458;2023-04-24T03:36:17;8.45;;;2.55;;
47659;SDS011;33403;43.608;1.458;2023-04-24T03:38:44;5.65;;;2.30;;
47659;SDS011;33403;43.608;1.458;2023-04-24T03:41:10;9.93;;;2.72;;
47659;SDS011;33403;43.608;1.458;2023-04-24T03:43:36;6.35;;;2.50;;
47659;SDS011;33403;43.608;1.458;2023-04-24T03:46:02;6.90;;;2.40;;
47659;SDS011;33403;43.608;1.458;2023-04-24T03:48:28;5.18;;;2.53;;
47659;SDS011;33403;43.608;1.458;2023-04-24T03:50:54;4.97;;;2.50;;
47659;SDS011;33403;43.608;1.458;2023-04-24T03:53:20;7.90;;;2.60;;
47659;SDS011;33403;43.608;1.458;2023-04-24T03:55:46;7.28;;;2.67;;
47659;SDS011;33403;43.608;1.458;2023-04-24T03:58:11;5.15;;;2.30;;
47659;SDS011;33403;43.608;1.458;2023-04-24T04:00:39;8.07;;;2.63;;
47659;SDS011;33403;43.608;1.458;2023-04-24T04:03:05;4.72;;;2.58;;
47659;SDS011;33403;43.608;1.458;2023-04-24T04:05:31;5.70;;;2.50;;
47659;SDS011;33403;43.608;1.458;2023-04-24T04:07:57;7.07;;;2.83;;
47659;SDS011;33403;43.608;1.458;2023-04-24T04:10:22;5.40;;;2.45;;
47659;SDS011;33403;43.608;1.458;2023-04-24T04:12:48;4.43;;;2.50;;
47659;SDS011;33403;43.608;1.458;2023-04-24T04:15:14;6.90;;;2.65;;
47659;SDS011;33403;43.608;1.458;2023-04-24T04:17:40;7.45;;;2.53;;
47659;SDS011;33403;43.608;1.458;2023-04-24T04:20:05;6.68;;;2.40;;
47659;SDS011;33403;43.608;1.458;2023-04-24T04:22:34;5.43;;;2.53;;
47659;SDS011;33403;43.608;1.458;2023-04-24T04:25:03;8.63;;;2.40;;
47659;SDS011;33403;43.608;1.458;2023-04-24T04:27:29;5.55;;;2.65;;
47659;SDS011;33403;43.608;1.458;2023-04-24T04:30:00;7.75;;;2.58;;
47659;SDS011;33403;43.608;1.458;2023-04-24T04:32:32;7.25;;;2.53;;
47659;SDS011;33403;43.608;1.458;2023-04-24T04:34:59;7.30;;;2.65;;
47659;SDS011;33403;43.608;1.458;2023-04-24T04:37:29;7.57;;;2.38;;
47659;SDS011;33403;43.608;1.458;2023-04-24T04:39:56;5.25;;;2.40;;
47659;SDS011;33403;43.608;1.458;2023-04-24T04:42:23;7.57;;;2.40;;
47659;SDS011;33403;43.608;1.458;2023-04-24T04:44:49;6.93;;;2.42;;
47659;SDS011;33403;43.608;1.458;2023-04-24T04:47:15;7.38;;;2.95;;
47659;SDS011;33403;43.608;1.458;2023-04-24T04:49:42;9.43;;;2.83;;
47659;SDS011;33403;43.608;1.458;2023-04-24T04:52:08;9.27;;;3.03;;
47659;SDS011;33403;43.608;1.458;2023-04-24T04:54:34;4.25;;;2.35;;
47659;SDS011;33403;43.608;1.458;2023-04-24T04:57:00;7.13;;;2.70;;
47659;SDS011;33403;43.608;1.458;2023-04-24T04:59:26;8.18;;;2.83;;
47659;SDS011;33403;43.608;1.458;2023-04-24T05:01:52;6.97;;;2.80;;
47659;SDS011;33403;43.608;1.458;2023-04-24T05:04:18;6.68;;;2.80;;
47659;SDS011;33403;43.608;1.458;2023-04-24T05:06:44;9.15;;;2.90;;
47659;SDS011;33403;43.608;1.458;2023-04-24T05:09:09;4.88;;;2.28;;
47659;SDS011;33403;43.608;1.458;2023-04-24T05:11:35;7.00;;;2.72;;
47659;SDS011;33403;43.608;1.458;2023-04-24T05:14:01;7.20;;;2.63;;
47659;SDS011;33403;43.608;1.458;2023-04-24T05:16:26;5.22;;;2.80;;
47659;SDS011;33403;43.608;1.458;2023-04-24T05:18:52;9.00;;;2.60;;
47659;SDS011;33403;43.608;1.458;2023-04-24T05:21:17;7.47;;;2.60;;
47659;SDS011;33403;43.608;1.458;2023-04-24T05:23:43;8.88;;;2.90;;
47659;SDS011;33403;43.608;1.458;2023-04-24T05:26:09;7.75;;;2.65;;
47659;SDS011;33403;43.608;1.458;2023-04-24T05:28:34;10.05;;;2.95;;
47659;SDS011;33403;43.608;1.458;2023-04-24T05:31:01;7.93;;;2.88;;
47659;SDS011;33403;43.608;1.458;2023-04-24T05:33:27;10.82;;;2.92;;
47659;SDS011;33403;43.608;1.458;2023-04-24T05:35:53;8.13;;;2.70;;
47659;SDS011;33403;43.608;1.458;2023-04-24T05:38:19;7.07;;;2.60;;
47659;SDS011;33403;43.608;1.458;2023-04-24T05:40:45;8.88;;;2.70;;
47659;SDS011;33403;43.608;1.458;2023-04-24T05:43:11;8.07;;;2.75;;
47659;SDS011;33403;43.608;1.458;2023-04-24T05:45:37;8.38;;;2.85;;
47659;SDS011;33403;43.608;1.458;2023-04-24T05:48:03;4.72;;;2.40;;
47659;SDS011;33403;43.608;1.458;2023-04-24T05:50:30;6.80;;;3.28;;
47659;SDS011;33403;43.608;1.458;2023-04-24T05:52:56;5.90;;;2.92;;
47659;SDS011;33403;43.608;1.458;2023-04-24T05:55:26;13.80;;;3.80;;
47659;SDS011;33403;43.608;1.458;2023-04-24T05:57:52;10.15;;;3.28;;
47659;SDS011;33403;43.608;1.458;2023-04-24T06:00:18;9.75;;;2.95;;
47659;SDS011;33403;43.608;1.458;2023-04-24T06:02:44;10.43;;;3.38;;
47659;SDS011;33403;43.608;1.458;2023-04-24T06:05:11;9.82;;;2.70;;
47659;SDS011;33403;43.608;1.458;2023-04-24T06:07:36;7.47;;;2.65;;
47659;SDS011;33403;43.608;1.458;2023-04-24T06:10:02;6.32;;;2.85;;
47659;SDS011;33403;43.608;1.458;2023-04-24T06:12:28;6.65;;;2.72;;
47659;SDS011;33403;43.608;1.458;2023-04-24T06:14:54;9.02;;;2.90;;
47659;SDS011;33403;43.608;1.458;2023-04-24T06:17:20;5.45;;;2.70;;
47659;SDS011;33403;43.608;1.458;2023-04-24T06:19:46;7.90;;;2.67;;
47659;SDS011;33403;43.608;1.458;2023-04-24T06:22:12;9.35;;;3.20;;
47659;SDS011;33403;43.608;1.458;2023-04-24T06:24:39;8.18;;;2.92;;
47659;SDS011;33403;43.608;1.458;2023-04-24T06:27:05;10.55;;;2.65;;
47659;SDS011;33403;43.608;1.458;2023-04-24T06:29:31;6.78;;;2.60;;
47659;SDS011;33403;43.608;1.458;2023-04-24T06:31:58;7.60;;;2.90;;
47659;SDS011;33403;43.608;1.458;2023-04-24T06:34:24;7.80;;;2.70;;
47659;SDS011;33403;43.608;1.458;2023-04-24T06:36:49;8.50;;;2.90;;
47659;SDS011;33403;43.608;1.458;2023-04-24T06:39:15;8.88;;;2.97;;
47659;SDS011;33403;43.608;1.458;2023-04-24T06:41:41;8.88;;;2.90;;
47659;SDS011;33403;43.608;1.458;2023-04-24T06:44:06;7.15;;;2.42;;
47659;SDS011;33403;43.608;1.458;2023-04-24T06:46:32;6.72;;;3.10;;
47659;SDS011;33403;43.608;1.458;2023-04-24T06:48:58;5.60;;;2.53;;
47659;SDS011;33403;43.608;1.458;2023-04-24T06:51:24;5.50;;;2.75;;
47659;SDS011;33403;43.608;1.458;2023-04-24T06:53:53;9.43;;;2.55;;
47659;SDS011;33403;43.608;1.458;2023-04-24T06:56:21;7.60;;;3.17;;
47659;SDS011;33403;43.608;1.458;2023-04-24T06:58:47;6.18;;;2.88;;
47659;SDS011;33403;43.608;1.458;2023-04-24T07:01:13;6.68;;;2.78;;
47659;SDS011;33403;43.608;1.458;2023-04-24T07:03:39;8.85;;;2.80;;
47659;SDS011;33403;43.608;1.458;2023-04-24T07:06:05;10.60;;;2.78;;
47659;SDS011;33403;43.608;1.458;2023-04-24T07:08:31;9.70;;;3.53;;
47659;SDS011;33403;43.608;1.458;2023-04-24T07:10:58;11.43;;;3.13;;
47659;SDS011;33403;43.608;1.458;2023-04-24T07:13:24;9.98;;;2.92;;
47659;SDS011;33403;43.608;1.458;2023-04-24T07:15:50;9.65;;;2.80;;
47659;SDS011;33403;43.608;1.458;2023-04-24T07:18:17;7.13;;;2.72;;
47659;SDS011;33403;43.608;1.458;2023-04-24T07:20:43;6.05;;;2.80;;
47659;SDS011;33403;43.608;1.458;2023-04-24T07:23:09;6.95;;;2.90;;
47659;SDS011;33403;43.608;1.458;2023-04-24T07:25:35;7.55;;;2.58;;
47659;SDS011;33403;43.608;1.458;2023-04-24T07:28:01;5.55;;;2.78;;
47659;SDS011;33403;43.608;1.458;2023-04-24T07:30:27;6.07;;;2.33;;
47659;SDS011;33403;43.608;1.458;2023-04-24T07:32:54;6.60;;;2.50;;
47659;SDS011;33403;43.608;1.458;2023-04-24T07:35:20;4.13;;;2.15;;
47659;SDS011;33403;43.608;1.458;2023-04-24T07:37:46;4.93;;;2.38;;
47659;SDS011;33403;43.608;1.458;2023-04-24T07:40:12;6.25;;;2.63;;
47659;SDS011;33403;43.608;1.458;2023-04-24T07:42:38;3.78;;;2.33;;
47659;SDS011;33403;43.608;1.458;2023-04-24T07:45:04;4.78;;;2.50;;
47659;SDS011;33403;43.608;1.458;2023-04-24T07:47:31;5.05;;;2.05;;
47659;SDS011;33403;43.608;1.458;2023-04-24T07:49:57;4.07;;;2.03;;
47659;SDS011;33403;43.608;1.458;2023-04-24T07:52:23;3.88;;;1.95;;
47659;SDS011;33403;43.608;1.458;2023-04-24T07:54:49;4.68;;;2.05;;
47659;SDS011;33403;43.608;1.458;2023-04-24T07:57:15;4.35;;;2.03;;
47659;SDS011;33403;43.608;1.458;2023-04-24T07:59:41;4.68;;;2.00;;
47659;SDS011;33403;43.608;1.458;2023-04-24T08:02:07;3.50;;;1.90;;
47659;SDS011;33403;43.608;1.458;2023-04-24T08:04:32;4.68;;;1.83;;
47659;SDS011;33403;43.608;1.458;2023-04-24T08:06:58;5.65;;;1.90;;
47659;SDS011;33403;43.608;1.458;2023-04-24T08:09:24;3.35;;;1.70;;
47659;SDS011;33403;43.608;1.458;2023-04-24T08:11:50;4.40;;;1.70;;
47659;SDS011;33403;43.608;1.458;2023-04-24T08:14:15;3.67;;;1.80;;
47659;SDS011;33403;43.608;1.458;2023-04-24T08:16:41;6.10;;;2.25;;
47659;SDS011;33403;43.608;1.458;2023-04-24T08:19:07;3.63;;;1.77;;
47659;SDS011;33403;43.608;1.458;2023-04-24T08:21:33;4.95;;;1.60;;
47659;SDS011;33403;43.608;1.458;2023-04-24T08:23:58;6.50;;;1.70;;
47659;SDS011;33403;43.608;1.458;2023-04-24T08:26:24;4.65;;;1.75;;
47659;SDS011;33403;43.608;1.458;2023-04-24T08:28:49;5.03;;;1.55;;
47659;SDS011;33403;43.608;1.458;2023-04-24T08:31:15;5.45;;;1.83;;
47659;SDS011;33403;43.608;1.458;2023-04-24T08:33:41;4.43;;;1.65;;
47659;SDS011;33403;43.608;1.458;2023-04-24T08:36:09;5.20;;;1.70;;
47659;SDS011;33403;43.608;1.458;2023-04-24T08:38:35;3.00;;;1.70;;
47659;SDS011;33403;43.608;1.458;2023-04-24T08:41:01;4.00;;;1.55;;
47659;SDS011;33403;43.608;1.458;2023-04-24T08:43:27;6.93;;;2.13;;
47659;SDS011;33403;43.608;1.458;2023-04-24T08:45:54;4.93;;;1.80;;
47659;SDS011;33403;43.608;1.458;2023-04-24T08:48:21;5.55;;;1.88;;
47659;SDS011;33403;43.608;1.458;2023-04-24T08:50:48;5.03;;;1.70;;
47659;SDS011;33403;43.608;1.458;2023-04-24T08:53:15;2.78;;;1.63;;
47659;SDS011;33403;43.608;1.458;2023-04-24T08:55:41;3.42;;;1.50;;
47659;SDS011;33403;43.608;1.458;2023-04-24T08:58:11;3.63;;;1.50;;
47659;SDS011;33403;43.608;1.458;2023-04-24T09:00:39;5.55;;;1.60;;
47659;SDS011;33403;43.608;1.458;2023-04-24T09:03:04;4.32;;;1.50;;
47659;SDS011;33403;43.608;1.458;2023-04-24T09:05:31;1.85;;;1.40;;
47659;SDS011;33403;43.608;1.458;2023-04-24T09:07:58;5.47;;;2.00;;
47659;SDS011;33403;43.608;1.458;2023-04-24T09:10:27;3.53;;;1.60;;
47659;SDS011;33403;43.608;1.458;2023-04-24T09:12:55;6.13;;;1.73;;
47659;SDS011;33403;43.608;1.458;2023-04-24T09:15:24;3.38;;;1.45;;
47659;SDS011;33403;43.608;1.458;2023-04-24T09:17:50;6.43;;;1.70;;
47659;SDS011;33403;43.608;1.458;2023-04-24T09:20:16;4.80;;;1.55;;
47659;SDS011;33403;43.608;1.458;2023-04-24T09:22:42;3.05;;;1.40;;
47659;SDS011;33403;43.608;1.458;2023-04-24T09:25:10;3.13;;;1.60;;
47659;SDS011;33403;43.608;1.458;2023-04-24T09:27:38;4.95;;;1.70;;
47659;SDS011;33403;43.608;1.458;2023-04-24T09:30:09;3.88;;;1.30;;
47659;SDS011;33403;43.608;1.458;2023-04-24T09:32:35;3.00;;;1.73;;
47659;SDS011;33403;43.608;1.458;2023-04-24T09:37:44;5.32;;;1.65;;
47659;SDS011;33403;43.608;1.458;2023-04-24T09:40:17;3.53;;;1.38;;
47659;SDS011;33403;43.608;1.458;2023-04-24T09:42:54;3.67;;;1.40;;
47659;SDS011;33403;43.608;1.458;2023-04-24T09:45:35;2.38;;;1.38;;
47659;SDS011;33403;43.608;1.458;2023-04-24T09:48:03;4.40;;;1.60;;
47659;SDS011;33403;43.608;1.458;2023-04-24T09:50:30;4.30;;;1.60;;
47659;SDS011;33403;43.608;1.458;2023-04-24T09:53:02;6.03;;;1.65;;
47659;SDS011;33403;43.608;1.458;2023-04-24T09:55:30;4.45;;;1.63;;
47659;SDS011;33403;43.608;1.458;2023-04-24T09:57:57;5.05;;;1.50;;
47659;SDS011;33403;43.608;1.458;2023-04-24T10:00:28;3.38;;;1.30;;
47659;SDS011;33403;43.608;1.458;2023-04-24T10:03:00;1.98;;;1.58;;
47659;SDS011;33403;43.608;1.458;2023-04-24T10:05:30;4.03;;;1.33;;
47659;SDS011;33403;43.608;1.458;2023-04-24T10:07:57;4.40;;;1.40;;
47659;SDS011;33403;43.608;1.458;2023-04-24T10:10:40;2.25;;;1.40;;
47659;SDS011;33403;43.608;1.458;2023-04-24T10:13:09;4.75;;;1.50;;
47659;SDS011;33403;43.608;1.458;2023-04-24T10:15:36;3.92;;;1.27;;
47659;SDS011;33403;43.608;1.458;2023-04-24T10:18:04;2.72;;;1.33;;
47659;SDS011;33403;43.608;1.458;2023-04-24T10:20:31;2.25;;;1.23;;
47659;SDS011;33403;43.608;1.458;2023-04-24T10:22:58;3.33;;;1.40;;
47659;SDS011;33403;43.608;1.458;2023-04-24T10:25:25;6.28;;;1.40;;
47659;SDS011;33403;43.608;1.458;2023-04-24T10:27:53;4.28;;;1.60;;
47659;SDS011;33403;43.608;1.458;2023-04-24T10:30:22;2.65;;;1.30;;
47659;SDS011;33403;43.608;1.458;2023-04-24T10:32:48;3.67;;;1.40;;
47659;SDS011;33403;43.608;1.458;2023-04-24T10:35:14;2.60;;;1.20;;
47659;SDS011;33403;43.608;1.458;2023-04-24T10:37:46;2.92;;;1.20;;
47659;SDS011;33403;43.608;1.458;2023-04-24T10:40:17;3.08;;;1.20;;
47659;SDS011;33403;43.608;1.458;2023-04-24T10:42:47;4.07;;;1.40;;
47659;SDS011;33403;43.608;1.458;2023-04-24T10:45:17;2.55;;;1.60;;
47659;SDS011;33403;43.608;1.458;2023-04-24T10:50:27;4.35;;;1.50;;
47659;SDS011;33403;43.608;1.458;2023-04-24T10:53:20;5.45;;;1.52;;
47659;SDS011;33403;43.608;1.458;2023-04-24T10:56:06;5.38;;;1.48;;
47659;SDS011;33403;43.608;1.458;2023-04-24T10:58:42;3.05;;;1.30;;
47659;SDS011;33403;43.608;1.458;2023-04-24T11:01:22;3.92;;;1.50;;
47659;SDS011;33403;43.608;1.458;2023-04-24T11:03:56;2.10;;;1.30;;
47659;SDS011;33403;43.608;1.458;2023-04-24T11:06:36;3.63;;;1.15;;
47659;SDS011;33403;43.608;1.458;2023-04-24T11:09:06;2.67;;;1.42;;
47659;SDS011;33403;43.608;1.458;2023-04-24T11:11:33;3.67;;;1.40;;
47659;SDS011;33403;43.608;1.458;2023-04-24T11:24:24;2.58;;;1.48;;
47659;SDS011;33403;43.608;1.458;2023-04-24T11:26:51;3.67;;;1.52;;
47659;SDS011;33403;43.608;1.458;2023-04-24T11:29:21;4.50;;;1.70;;
47659;SDS011;33403;43.608;1.458;2023-04-24T11:31:48;4.55;;;1.70;;
47659;SDS011;33403;43.608;1.458;2023-04-24T11:34:16;4.97;;;1.50;;
47659;SDS011;33403;43.608;1.458;2023-04-24T11:36:43;3.63;;;1.52;;
47659;SDS011;33403;43.608;1.458;2023-04-24T11:39:12;3.58;;;1.63;;
47659;SDS011;33403;43.608;1.458;2023-04-24T11:41:38;4.10;;;1.90;;
47659;SDS011;33403;43.608;1.458;2023-04-24T11:44:05;4.03;;;1.70;;
47659;SDS011;33403;43.608;1.458;2023-04-24T11:46:32;4.70;;;1.92;;
47659;SDS011;33403;43.608;1.458;2023-04-24T11:48:58;7.00;;;1.67;;
47659;SDS011;33403;43.608;1.458;2023-04-24T11:51:24;6.45;;;1.73;;
47659;SDS011;33403;43.608;1.458;2023-04-24T11:53:54;2.70;;;1.52;;
47659;SDS011;33403;43.608;1.458;2023-04-24T11:56:24;3.85;;;1.60;;
47659;SDS011;33403;43.608;1.458;2023-04-24T11:58:53;2.97;;;1.42;;
47659;SDS011;33403;43.608;1.458;2023-04-24T12:01:19;4.75;;;1.42;;
47659;SDS011;33403;43.608;1.458;2023-04-24T12:03:58;4.95;;;1.50;;
47659;SDS011;33403;43.608;1.458;2023-04-24T12:06:25;3.08;;;1.40;;
47659;SDS011;33403;43.608;1.458;2023-04-24T12:08:52;2.90;;;1.30;;
47659;SDS011;33403;43.608;1.458;2023-04-24T12:11:20;3.25;;;1.20;;
47659;SDS011;33403;43.608;1.458;2023-04-24T12:13:45;4.80;;;1.35;;
47659;SDS011;33403;43.608;1.458;2023-04-24T12:16:11;3.10;;;1.40;;
47659;SDS011;33403;43.608;1.458;2023-04-24T12:18:41;3.63;;;1.38;;
47659;SDS011;33403;43.608;1.458;2023-04-24T12:21:15;2.90;;;1.45;;
47659;SDS011;33403;43.608;1.458;2023-04-24T12:23:44;3.47;;;1.38;;
47659;SDS011;33403;43.608;1.458;2023-04-24T12:26:16;3.42;;;1.60;;
47659;SDS011;33403;43.608;1.458;2023-04-24T12:28:45;4.80;;;1.60;;
47659;SDS011;33403;43.608;1.458;2023-04-24T12:31:14;3.60;;;1.42;;
47659;SDS011;33403;43.608;1.458;2023-04-24T12:33:45;4.43;;;1.50;;
47659;SDS011;33403;43.608;1.458;2023-04-24T12:36:11;3.38;;;1.35;;
47659;SDS011;33403;43.608;1.458;2023-04-24T12:38:37;4.18;;;1.50;;
47659;SDS011;33403;43.608;1.458;2023-04-24T12:41:07;3.67;;;1.45;;
47659;SDS011;33403;43.608;1.458;2023-04-24T12:43:33;3.97;;;1.40;;
47659;SDS011;33403;43.608;1.458;2023-04-24T12:46:00;2.42;;;1.30;;
47659;SDS011;33403;43.608;1.458;2023-04-24T12:48:26;4.93;;;1.50;;
47659;SDS011;33403;43.608;1.458;2023-04-24T12:50:52;2.47;;;1.30;;
47659;SDS011;33403;43.608;1.458;2023-04-24T12:53:18;3.50;;;1.33;;
47659;SDS011;33403;43.608;1.458;2023-04-24T12:55:43;3.25;;;1.40;;
47659;SDS011;33403;43.608;1.458;2023-04-24T12:58:10;4.90;;;1.20;;
47659;SDS011;33403;43.608;1.458;2023-04-24T13:00:35;5.07;;;1.40;;
47659;SDS011;33403;43.608;1.458;2023-04-24T13:03:02;3.22;;;1.20;;
47659;SDS011;33403;43.608;1.458;2023-04-24T13:05:28;2.80;;;1.27;;
47659;SDS011;33403;43.608;1.458;2023-04-24T13:07:53;1.83;;;1.20;;
47659;SDS011;33403;43.608;1.458;2023-04-24T13:10:19;3.25;;;1.20;;
47659;SDS011;33403;43.608;1.458;2023-04-24T13:12:45;1.77;;;1.20;;
47659;SDS011;33403;43.608;1.458;2023-04-24T13:15:11;2.85;;;1.33;;
47659;SDS011;33403;43.608;1.458;2023-04-24T13:17:37;4.03;;;1.27;;
47659;SDS011;33403;43.608;1.458;2023-04-24T13:20:03;3.75;;;1.70;;
47659;SDS011;33403;43.608;1.458;2023-04-24T13:22:29;4.43;;;1.20;;
47659;SDS011;33403;43.608;1.458;2023-04-24T13:24:55;3.17;;;1.30;;
47659;SDS011;33403;43.608;1.458;2023-04-24T13:27:21;2.45;;;1.20;;
47659;SDS011;33403;43.608;1.458;2023-04-24T13:29:46;1.77;;;1.20;;
47659;SDS011;33403;43.608;1.458;2023-04-24T13:32:12;2.60;;;1.33;;
47659;SDS011;33403;43.608;1.458;2023-04-24T13:34:38;4.75;;;1.40;;
47659;SDS011;33403;43.608;1.458;2023-04-24T13:37:04;3.03;;;1.48;;
47659;SDS011;33403;43.608;1.458;2023-04-24T13:39:30;3.67;;;1.42;;
47659;SDS011;33403;43.608;1.458;2023-04-24T13:41:56;4.40;;;1.48;;
47659;SDS011;33403;43.608;1.458;2023-04-24T13:44:22;5.10;;;1.30;;
47659;SDS011;33403;43.608;1.458;2023-04-24T13:46:50;3.90;;;1.40;;
47659;SDS011;33403;43.608;1.458;2023-04-24T13:49:19;4.05;;;1.70;;
47659;SDS011;33403;43.608;1.458;2023-04-24T13:51:45;3.08;;;1.40;;
47659;SDS011;33403;43.608;1.458;2023-04-24T13:54:11;2.50;;;1.30;;
47659;SDS011;33403;43.608;1.458;2023-04-24T13:56:37;2.35;;;1.30;;
47659;SDS011;33403;43.608;1.458;2023-04-24T13:59:03;2.55;;;1.40;;
47659;SDS011;33403;43.608;1.458;2023-04-24T14:01:29;4.55;;;1.40;;
47659;SDS011;33403;43.608;1.458;2023-04-24T14:03:55;4.32;;;1.60;;
47659;SDS011;33403;43.608;1.458;2023-04-24T14:06:21;3.10;;;1.35;;
47659;SDS011;33403;43.608;1.458;2023-04-24T14:08:48;2.97;;;1.17;;
47659;SDS011;33403;43.608;1.458;2023-04-24T14:11:15;2.00;;;1.10;;
47659;SDS011;33403;43.608;1.458;2023-04-24T14:13:41;3.30;;;1.20;;
47659;SDS011;33403;43.608;1.458;2023-04-24T14:16:07;1.27;;;1.00;;
47659;SDS011;33403;43.608;1.458;2023-04-24T14:18:33;3.55;;;1.40;;
47659;SDS011;33403;43.608;1.458;2023-04-24T14:20:59;3.17;;;1.27;;
47659;SDS011;33403;43.608;1.458;2023-04-24T14:23:26;3.40;;;1.20;;
47659;SDS011;33403;43.608;1.458;2023-04-24T14:25:52;3.50;;;1.50;;
47659;SDS011;33403;43.608;1.458;2023-04-24T14:28:18;5.63;;;1.25;;
47659;SDS011;33403;43.608;1.458;2023-04-24T14:30:45;3.92;;;1.50;;
47659;SDS011;33403;43.608;1.458;2023-04-24T14:33:11;3.13;;;1.30;;
47659;SDS011;33403;43.608;1.458;2023-04-24T14:35:38;3.70;;;1.70;;
47659;SDS011;33403;43.608;1.458;2023-04-24T14:38:04;2.72;;;1.40;;
47659;SDS011;33403;43.608;1.458;2023-04-24T14:40:30;2.65;;;1.15;;
47659;SDS011;33403;43.608;1.458;2023-04-24T14:42:57;3.58;;;1.30;;
47659;SDS011;33403;43.608;1.458;2023-04-24T14:45:26;2.10;;;1.20;;
47659;SDS011;33403;43.608;1.458;2023-04-24T14:47:52;3.63;;;1.35;;
47659;SDS011;33403;43.608;1.458;2023-04-24T14:50:18;3.95;;;1.20;;
47659;SDS011;33403;43.608;1.458;2023-04-24T14:52:44;3.67;;;1.30;;
47659;SDS011;33403;43.608;1.458;2023-04-24T14:55:10;3.80;;;1.30;;
47659;SDS011;33403;43.608;1.458;2023-04-24T14:57:35;4.25;;;1.40;;
47659;SDS011;33403;43.608;1.458;2023-04-24T15:00:05;3.00;;;1.33;;
47659;SDS011;33403;43.608;1.458;2023-04-24T15:02:33;3.95;;;1.33;;